sensor_id;sensor_type;location;lat;lon;timestamp;P1;durP1;ratioP1;P2;durP2;ratioP2
49828;SDS011;35723;51.194;5.112;2024-01-30T00:01:22;19.67;;;9.13;;
49828;SDS011;35723;51.194;5.112;2024-01-30T00:03:47;17.70;;;8.50;;
49828;SDS011;35723;51.194;5.112;2024-01-30T00:06:13;16.58;;;8.40;;
49828;SDS011;35723;51.194;5.112;2024-01-30T00:08:39;19.05;;;8.80;;
49828;SDS011;35723;51.194;5.112;2024-01-30T00:11:04;21.33;;;8.68;;
49828;SDS011;35723;51.194;5.112;2024-01-30T00:13:32;19.00;;;8.23;;
49828;SDS011;35723;51.194;5.112;2024-01-30T00:15:57;18.70;;;8.57;;
49828;SDS011;35723;51.194;5.112;2024-01-30T00:18:23;18.48;;;7.97;;
49828;SDS011;35723;51.194;5.112;2024-01-30T00:20:49;18.45;;;8.50;;
49828;SDS011;35723;51.194;5.112;2024-01-30T00:23:14;20.40;;;8.80;;
49828;SDS011;35723;51.194;5.112;2024-01-30T00:25:40;18.60;;;8.80;;
49828;SDS011;35723;51.194;5.112;2024-01-30T00:28:06;19.67;;;8.68;;
49828;SDS011;35723;51.194;5.112;2024-01-30T00:30:31;18.90;;;8.80;;
49828;SDS011;35723;51.194;5.112;2024-01-30T00:32:57;19.13;;;8.55;;
49828;SDS011;35723;51.194;5.112;2024-01-30T00:35:23;17.95;;;8.65;;
49828;SDS011;35723;51.194;5.112;2024-01-30T00:37:48;18.85;;;8.65;;
49828;SDS011;35723;51.194;5.112;2024-01-30T00:40:14;18.98;;;8.20;;
49828;SDS011;35723;51.194;5.112;2024-01-30T00:42:41;19.52;;;9.00;;
49828;SDS011;35723;51.194;5.112;2024-01-30T00:45:11;19.63;;;8.70;;
49828;SDS011;35723;51.194;5.112;2024-01-30T00:47:41;21.23;;;8.75;;
49828;SDS011;35723;51.194;5.112;2024-01-30T00:50:07;19.85;;;8.70;;
49828;SDS011;35723;51.194;5.112;2024-01-30T00:52:33;19.98;;;8.23;;
49828;SDS011;35723;51.194;5.112;2024-01-30T00:54:59;19.17;;;8.27;;
49828;SDS011;35723;51.194;5.112;2024-01-30T00:57:25;19.40;;;8.88;;
49828;SDS011;35723;51.194;5.112;2024-01-30T00:59:52;17.45;;;8.13;;
49828;SDS011;35723;51.194;5.112;2024-01-30T01:02:17;18.23;;;8.98;;
49828;SDS011;35723;51.194;5.112;2024-01-30T01:04:43;17.05;;;8.05;;
49828;SDS011;35723;51.194;5.112;2024-01-30T01:07:10;17.15;;;8.40;;
49828;SDS011;35723;51.194;5.112;2024-01-30T01:09:36;18.58;;;8.27;;
49828;SDS011;35723;51.194;5.112;2024-01-30T01:12:02;19.05;;;8.00;;
49828;SDS011;35723;51.194;5.112;2024-01-30T01:14:29;19.20;;;8.10;;
49828;SDS011;35723;51.194;5.112;2024-01-30T01:16:55;18.20;;;8.30;;
49828;SDS011;35723;51.194;5.112;2024-01-30T01:19:21;22.42;;;8.70;;
49828;SDS011;35723;51.194;5.112;2024-01-30T01:21:47;19.35;;;8.18;;
49828;SDS011;35723;51.194;5.112;2024-01-30T01:24:12;19.35;;;8.02;;
49828;SDS011;35723;51.194;5.112;2024-01-30T01:26:38;17.08;;;7.93;;
49828;SDS011;35723;51.194;5.112;2024-01-30T01:29:04;18.30;;;8.00;;
49828;SDS011;35723;51.194;5.112;2024-01-30T01:31:38;17.38;;;7.93;;
49828;SDS011;35723;51.194;5.112;2024-01-30T01:34:11;17.65;;;8.00;;
49828;SDS011;35723;51.194;5.112;2024-01-30T01:36:37;18.70;;;8.30;;
49828;SDS011;35723;51.194;5.112;2024-01-30T01:39:02;21.25;;;8.68;;
49828;SDS011;35723;51.194;5.112;2024-01-30T01:41:32;22.60;;;8.48;;
49828;SDS011;35723;51.194;5.112;2024-01-30T01:43:58;20.48;;;8.70;;
49828;SDS011;35723;51.194;5.112;2024-01-30T01:46:29;20.52;;;8.02;;
49828;SDS011;35723;51.194;5.112;2024-01-30T01:48:57;18.52;;;8.05;;
49828;SDS011;35723;51.194;5.112;2024-01-30T01:51:24;19.05;;;8.18;;
49828;SDS011;35723;51.194;5.112;2024-01-30T01:53:53;17.63;;;8.40;;
49828;SDS011;35723;51.194;5.112;2024-01-30T01:56:20;18.42;;;8.48;;
49828;SDS011;35723;51.194;5.112;2024-01-30T01:58:46;19.15;;;8.40;;
49828;SDS011;35723;51.194;5.112;2024-01-30T02:01:14;17.95;;;8.48;;
49828;SDS011;35723;51.194;5.112;2024-01-30T02:03:43;17.83;;;8.32;;
49828;SDS011;35723;51.194;5.112;2024-01-30T02:06:10;16.95;;;8.02;;
49828;SDS011;35723;51.194;5.112;2024-01-30T02:08:37;21.02;;;8.85;;
49828;SDS011;35723;51.194;5.112;2024-01-30T02:11:03;17.90;;;8.10;;
49828;SDS011;35723;51.194;5.112;2024-01-30T02:13:29;20.38;;;8.27;;
49828;SDS011;35723;51.194;5.112;2024-01-30T02:15:54;18.67;;;8.40;;
49828;SDS011;35723;51.194;5.112;2024-01-30T02:18:20;19.70;;;8.80;;
49828;SDS011;35723;51.194;5.112;2024-01-30T02:20:46;17.90;;;8.05;;
49828;SDS011;35723;51.194;5.112;2024-01-30T02:23:12;18.75;;;8.45;;
49828;SDS011;35723;51.194;5.112;2024-01-30T02:25:40;21.73;;;8.57;;
49828;SDS011;35723;51.194;5.112;2024-01-30T02:28:10;19.75;;;8.05;;
49828;SDS011;35723;51.194;5.112;2024-01-30T02:30:45;17.95;;;8.13;;
49828;SDS011;35723;51.194;5.112;2024-01-30T02:33:11;18.17;;;8.40;;
49828;SDS011;35723;51.194;5.112;2024-01-30T02:35:37;17.15;;;7.90;;
49828;SDS011;35723;51.194;5.112;2024-01-30T02:38:03;16.75;;;7.72;;
49828;SDS011;35723;51.194;5.112;2024-01-30T02:40:29;18.55;;;8.05;;
49828;SDS011;35723;51.194;5.112;2024-01-30T02:42:55;18.23;;;8.02;;
49828;SDS011;35723;51.194;5.112;2024-01-30T02:45:21;20.35;;;8.85;;
49828;SDS011;35723;51.194;5.112;2024-01-30T02:47:47;18.38;;;8.15;;
49828;SDS011;35723;51.194;5.112;2024-01-30T02:50:12;20.40;;;8.70;;
49828;SDS011;35723;51.194;5.112;2024-01-30T02:52:40;17.52;;;8.43;;
49828;SDS011;35723;51.194;5.112;2024-01-30T02:55:05;19.42;;;8.75;;
49828;SDS011;35723;51.194;5.112;2024-01-30T02:57:31;18.15;;;8.38;;
49828;SDS011;35723;51.194;5.112;2024-01-30T02:59:57;18.95;;;8.50;;
49828;SDS011;35723;51.194;5.112;2024-01-30T03:02:23;17.92;;;8.63;;
49828;SDS011;35723;51.194;5.112;2024-01-30T03:04:48;17.42;;;8.38;;
49828;SDS011;35723;51.194;5.112;2024-01-30T03:07:14;19.90;;;8.70;;
49828;SDS011;35723;51.194;5.112;2024-01-30T03:09:41;21.10;;;9.10;;
49828;SDS011;35723;51.194;5.112;2024-01-30T03:12:10;19.15;;;8.45;;
49828;SDS011;35723;51.194;5.112;2024-01-30T03:14:35;18.30;;;8.65;;
49828;SDS011;35723;51.194;5.112;2024-01-30T03:17:01;19.00;;;8.27;;
49828;SDS011;35723;51.194;5.112;2024-01-30T03:19:27;18.02;;;8.52;;
49828;SDS011;35723;51.194;5.112;2024-01-30T03:21:53;17.45;;;8.32;;
49828;SDS011;35723;51.194;5.112;2024-01-30T03:24:18;17.73;;;8.50;;
49828;SDS011;35723;51.194;5.112;2024-01-30T03:26:44;18.85;;;7.75;;
49828;SDS011;35723;51.194;5.112;2024-01-30T03:29:10;18.60;;;8.20;;
49828;SDS011;35723;51.194;5.112;2024-01-30T03:31:35;17.08;;;7.93;;
49828;SDS011;35723;51.194;5.112;2024-01-30T03:34:01;19.25;;;8.50;;
49828;SDS011;35723;51.194;5.112;2024-01-30T03:36:27;18.83;;;8.45;;
49828;SDS011;35723;51.194;5.112;2024-01-30T03:38:53;16.98;;;7.82;;
49828;SDS011;35723;51.194;5.112;2024-01-30T03:41:19;18.17;;;7.78;;
49828;SDS011;35723;51.194;5.112;2024-01-30T03:43:44;20.05;;;8.60;;
49828;SDS011;35723;51.194;5.112;2024-01-30T03:46:11;18.13;;;8.32;;
49828;SDS011;35723;51.194;5.112;2024-01-30T03:48:37;20.15;;;8.40;;
49828;SDS011;35723;51.194;5.112;2024-01-30T03:51:04;22.60;;;8.27;;
49828;SDS011;35723;51.194;5.112;2024-01-30T03:53:30;17.35;;;7.97;;
49828;SDS011;35723;51.194;5.112;2024-01-30T03:55:56;19.13;;;7.78;;
49828;SDS011;35723;51.194;5.112;2024-01-30T03:58:22;18.92;;;7.78;;
49828;SDS011;35723;51.194;5.112;2024-01-30T04:00:47;16.35;;;8.10;;
49828;SDS011;35723;51.194;5.112;2024-01-30T04:03:16;18.10;;;8.20;;
49828;SDS011;35723;51.194;5.112;2024-01-30T04:05:42;18.83;;;8.48;;
49828;SDS011;35723;51.194;5.112;2024-01-30T04:08:08;17.55;;;8.15;;
49828;SDS011;35723;51.194;5.112;2024-01-30T04:10:33;16.67;;;7.90;;
49828;SDS011;35723;51.194;5.112;2024-01-30T04:12:59;18.73;;;8.00;;
49828;SDS011;35723;51.194;5.112;2024-01-30T04:15:25;16.70;;;7.95;;
49828;SDS011;35723;51.194;5.112;2024-01-30T04:17:51;20.55;;;7.85;;
49828;SDS011;35723;51.194;5.112;2024-01-30T04:20:17;17.05;;;7.75;;
49828;SDS011;35723;51.194;5.112;2024-01-30T04:22:43;18.85;;;8.35;;
49828;SDS011;35723;51.194;5.112;2024-01-30T04:25:09;18.42;;;8.10;;
49828;SDS011;35723;51.194;5.112;2024-01-30T04:27:35;19.95;;;7.90;;
49828;SDS011;35723;51.194;5.112;2024-01-30T04:30:01;17.55;;;7.65;;
49828;SDS011;35723;51.194;5.112;2024-01-30T04:32:27;17.65;;;7.80;;
49828;SDS011;35723;51.194;5.112;2024-01-30T04:34:52;18.95;;;8.00;;
49828;SDS011;35723;51.194;5.112;2024-01-30T04:37:18;16.60;;;7.60;;
49828;SDS011;35723;51.194;5.112;2024-01-30T04:39:44;17.05;;;7.68;;
49828;SDS011;35723;51.194;5.112;2024-01-30T04:42:09;17.83;;;7.78;;
49828;SDS011;35723;51.194;5.112;2024-01-30T04:44:35;17.98;;;7.97;;
49828;SDS011;35723;51.194;5.112;2024-01-30T04:47:00;17.70;;;7.75;;
49828;SDS011;35723;51.194;5.112;2024-01-30T04:49:26;18.40;;;7.88;;
49828;SDS011;35723;51.194;5.112;2024-01-30T04:51:52;18.83;;;7.80;;
49828;SDS011;35723;51.194;5.112;2024-01-30T04:54:18;16.20;;;7.47;;
49828;SDS011;35723;51.194;5.112;2024-01-30T04:56:44;17.13;;;7.43;;
49828;SDS011;35723;51.194;5.112;2024-01-30T04:59:09;15.27;;;7.60;;
49828;SDS011;35723;51.194;5.112;2024-01-30T05:01:35;21.15;;;8.32;;
49828;SDS011;35723;51.194;5.112;2024-01-30T05:04:00;19.35;;;8.38;;
49828;SDS011;35723;51.194;5.112;2024-01-30T05:06:28;18.63;;;7.72;;
49828;SDS011;35723;51.194;5.112;2024-01-30T05:08:54;20.23;;;7.80;;
49828;SDS011;35723;51.194;5.112;2024-01-30T05:11:20;18.67;;;8.40;;
49828;SDS011;35723;51.194;5.112;2024-01-30T05:13:46;18.23;;;7.90;;
49828;SDS011;35723;51.194;5.112;2024-01-30T05:16:12;17.83;;;8.20;;
49828;SDS011;35723;51.194;5.112;2024-01-30T05:18:38;17.65;;;8.10;;
49828;SDS011;35723;51.194;5.112;2024-01-30T05:21:04;18.08;;;7.95;;
49828;SDS011;35723;51.194;5.112;2024-01-30T05:23:30;19.95;;;8.27;;
49828;SDS011;35723;51.194;5.112;2024-01-30T05:25:56;18.92;;;8.18;;
49828;SDS011;35723;51.194;5.112;2024-01-30T05:28:22;20.30;;;8.43;;
49828;SDS011;35723;51.194;5.112;2024-01-30T05:30:47;17.90;;;8.30;;
49828;SDS011;35723;51.194;5.112;2024-01-30T05:33:13;19.17;;;8.10;;
49828;SDS011;35723;51.194;5.112;2024-01-30T05:35:38;18.83;;;8.15;;
49828;SDS011;35723;51.194;5.112;2024-01-30T05:38:04;19.10;;;8.32;;
49828;SDS011;35723;51.194;5.112;2024-01-30T05:40:30;18.73;;;7.97;;
49828;SDS011;35723;51.194;5.112;2024-01-30T05:42:56;18.48;;;8.25;;
49828;SDS011;35723;51.194;5.112;2024-01-30T05:45:25;18.30;;;8.32;;
49828;SDS011;35723;51.194;5.112;2024-01-30T05:47:51;20.33;;;8.48;;
49828;SDS011;35723;51.194;5.112;2024-01-30T05:50:17;17.02;;;8.25;;
49828;SDS011;35723;51.194;5.112;2024-01-30T05:52:43;20.10;;;7.90;;
49828;SDS011;35723;51.194;5.112;2024-01-30T05:55:09;17.70;;;8.25;;
49828;SDS011;35723;51.194;5.112;2024-01-30T05:57:35;17.95;;;8.43;;
49828;SDS011;35723;51.194;5.112;2024-01-30T06:00:01;19.70;;;8.23;;
49828;SDS011;35723;51.194;5.112;2024-01-30T06:02:26;19.15;;;7.70;;
49828;SDS011;35723;51.194;5.112;2024-01-30T06:04:52;19.33;;;7.90;;
49828;SDS011;35723;51.194;5.112;2024-01-30T06:07:17;17.55;;;7.78;;
49828;SDS011;35723;51.194;5.112;2024-01-30T06:09:43;17.95;;;7.93;;
49828;SDS011;35723;51.194;5.112;2024-01-30T06:12:09;17.10;;;7.60;;
49828;SDS011;35723;51.194;5.112;2024-01-30T06:14:36;15.68;;;7.65;;
49828;SDS011;35723;51.194;5.112;2024-01-30T06:17:02;20.17;;;8.43;;
49828;SDS011;35723;51.194;5.112;2024-01-30T06:19:28;18.02;;;7.80;;
49828;SDS011;35723;51.194;5.112;2024-01-30T06:21:54;16.10;;;7.43;;
49828;SDS011;35723;51.194;5.112;2024-01-30T06:24:19;17.73;;;7.85;;
49828;SDS011;35723;51.194;5.112;2024-01-30T06:26:45;19.80;;;8.15;;
49828;SDS011;35723;51.194;5.112;2024-01-30T06:29:11;17.80;;;7.43;;
49828;SDS011;35723;51.194;5.112;2024-01-30T06:31:40;18.00;;;7.60;;
49828;SDS011;35723;51.194;5.112;2024-01-30T06:34:07;18.30;;;7.93;;
49828;SDS011;35723;51.194;5.112;2024-01-30T06:36:33;16.52;;;7.88;;
49828;SDS011;35723;51.194;5.112;2024-01-30T06:38:59;19.45;;;7.82;;
49828;SDS011;35723;51.194;5.112;2024-01-30T06:41:25;20.00;;;7.50;;
49828;SDS011;35723;51.194;5.112;2024-01-30T06:43:50;18.65;;;7.65;;
49828;SDS011;35723;51.194;5.112;2024-01-30T06:46:16;18.55;;;8.00;;
49828;SDS011;35723;51.194;5.112;2024-01-30T06:48:42;17.30;;;7.78;;
49828;SDS011;35723;51.194;5.112;2024-01-30T06:51:09;20.00;;;8.07;;
49828;SDS011;35723;51.194;5.112;2024-01-30T06:53:36;18.23;;;8.15;;
49828;SDS011;35723;51.194;5.112;2024-01-30T06:56:02;17.90;;;7.90;;
49828;SDS011;35723;51.194;5.112;2024-01-30T06:58:28;17.17;;;7.07;;
49828;SDS011;35723;51.194;5.112;2024-01-30T07:00:54;15.80;;;7.80;;
49828;SDS011;35723;51.194;5.112;2024-01-30T07:03:20;17.00;;;7.45;;
49828;SDS011;35723;51.194;5.112;2024-01-30T07:05:45;20.42;;;8.32;;
49828;SDS011;35723;51.194;5.112;2024-01-30T07:08:11;17.02;;;8.13;;
49828;SDS011;35723;51.194;5.112;2024-01-30T07:10:37;18.77;;;8.32;;
49828;SDS011;35723;51.194;5.112;2024-01-30T07:13:02;20.42;;;8.38;;
49828;SDS011;35723;51.194;5.112;2024-01-30T07:15:30;17.80;;;8.15;;
49828;SDS011;35723;51.194;5.112;2024-01-30T07:17:55;21.77;;;8.45;;
49828;SDS011;35723;51.194;5.112;2024-01-30T07:20:21;19.08;;;8.55;;
49828;SDS011;35723;51.194;5.112;2024-01-30T07:22:47;17.58;;;8.27;;
49828;SDS011;35723;51.194;5.112;2024-01-30T07:25:13;18.27;;;8.13;;
49828;SDS011;35723;51.194;5.112;2024-01-30T07:27:38;18.20;;;8.25;;
49828;SDS011;35723;51.194;5.112;2024-01-30T07:30:04;18.13;;;8.38;;
49828;SDS011;35723;51.194;5.112;2024-01-30T07:32:30;20.63;;;9.18;;
49828;SDS011;35723;51.194;5.112;2024-01-30T07:34:56;21.92;;;10.10;;
49828;SDS011;35723;51.194;5.112;2024-01-30T07:37:22;19.98;;;9.40;;
49828;SDS011;35723;51.194;5.112;2024-01-30T07:39:48;21.38;;;9.07;;
49828;SDS011;35723;51.194;5.112;2024-01-30T07:42:13;20.15;;;9.30;;
49828;SDS011;35723;51.194;5.112;2024-01-30T07:44:39;21.63;;;9.23;;
49828;SDS011;35723;51.194;5.112;2024-01-30T07:47:05;19.77;;;9.38;;
49828;SDS011;35723;51.194;5.112;2024-01-30T07:49:34;18.33;;;8.52;;
49828;SDS011;35723;51.194;5.112;2024-01-30T07:51:59;18.63;;;8.60;;
49828;SDS011;35723;51.194;5.112;2024-01-30T07:54:25;19.02;;;8.52;;
49828;SDS011;35723;51.194;5.112;2024-01-30T07:56:51;18.55;;;8.77;;
49828;SDS011;35723;51.194;5.112;2024-01-30T07:59:17;18.77;;;8.63;;
49828;SDS011;35723;51.194;5.112;2024-01-30T08:01:44;21.67;;;8.38;;
49828;SDS011;35723;51.194;5.112;2024-01-30T08:04:10;17.10;;;8.15;;
49828;SDS011;35723;51.194;5.112;2024-01-30T08:06:35;19.42;;;8.68;;
49828;SDS011;35723;51.194;5.112;2024-01-30T08:09:01;21.60;;;8.65;;
49828;SDS011;35723;51.194;5.112;2024-01-30T08:11:27;21.20;;;8.43;;
49828;SDS011;35723;51.194;5.112;2024-01-30T08:13:54;19.77;;;8.70;;
49828;SDS011;35723;51.194;5.112;2024-01-30T08:16:20;19.63;;;8.35;;
49828;SDS011;35723;51.194;5.112;2024-01-30T08:18:46;18.60;;;8.15;;
49828;SDS011;35723;51.194;5.112;2024-01-30T08:21:12;19.58;;;8.48;;
49828;SDS011;35723;51.194;5.112;2024-01-30T08:23:38;20.52;;;8.70;;
49828;SDS011;35723;51.194;5.112;2024-01-30T08:26:04;21.40;;;8.68;;
49828;SDS011;35723;51.194;5.112;2024-01-30T08:28:30;18.80;;;8.27;;
49828;SDS011;35723;51.194;5.112;2024-01-30T08:30:56;18.77;;;8.52;;
49828;SDS011;35723;51.194;5.112;2024-01-30T08:33:22;19.83;;;8.38;;
49828;SDS011;35723;51.194;5.112;2024-01-30T08:35:47;20.13;;;8.48;;
49828;SDS011;35723;51.194;5.112;2024-01-30T08:38:13;18.95;;;8.35;;
49828;SDS011;35723;51.194;5.112;2024-01-30T08:40:39;18.33;;;8.50;;
49828;SDS011;35723;51.194;5.112;2024-01-30T08:43:04;18.90;;;8.20;;
49828;SDS011;35723;51.194;5.112;2024-01-30T08:45:30;20.13;;;8.13;;
49828;SDS011;35723;51.194;5.112;2024-01-30T08:47:56;22.17;;;8.90;;
49828;SDS011;35723;51.194;5.112;2024-01-30T08:50:22;20.00;;;8.77;;
49828;SDS011;35723;51.194;5.112;2024-01-30T08:52:47;20.30;;;8.52;;
49828;SDS011;35723;51.194;5.112;2024-01-30T08:55:13;25.73;;;8.68;;
49828;SDS011;35723;51.194;5.112;2024-01-30T08:57:39;21.80;;;9.02;;
49828;SDS011;35723;51.194;5.112;2024-01-30T09:00:05;20.55;;;8.88;;
49828;SDS011;35723;51.194;5.112;2024-01-30T09:02:34;19.65;;;8.18;;
49828;SDS011;35723;51.194;5.112;2024-01-30T09:04:59;21.52;;;8.65;;
49828;SDS011;35723;51.194;5.112;2024-01-30T09:07:25;22.17;;;8.82;;
49828;SDS011;35723;51.194;5.112;2024-01-30T09:09:51;20.02;;;8.65;;
49828;SDS011;35723;51.194;5.112;2024-01-30T09:12:16;20.60;;;8.13;;
49828;SDS011;35723;51.194;5.112;2024-01-30T09:14:42;21.27;;;8.10;;
49828;SDS011;35723;51.194;5.112;2024-01-30T09:17:07;20.95;;;8.55;;
49828;SDS011;35723;51.194;5.112;2024-01-30T09:19:33;21.38;;;8.07;;
49828;SDS011;35723;51.194;5.112;2024-01-30T09:21:59;19.45;;;7.97;;
49828;SDS011;35723;51.194;5.112;2024-01-30T09:24:25;21.88;;;8.50;;
49828;SDS011;35723;51.194;5.112;2024-01-30T09:26:51;19.35;;;8.05;;
49828;SDS011;35723;51.194;5.112;2024-01-30T09:29:17;21.05;;;8.07;;
49828;SDS011;35723;51.194;5.112;2024-01-30T09:31:43;21.58;;;8.10;;
49828;SDS011;35723;51.194;5.112;2024-01-30T09:34:10;21.33;;;8.50;;
49828;SDS011;35723;51.194;5.112;2024-01-30T09:36:36;21.38;;;8.73;;
49828;SDS011;35723;51.194;5.112;2024-01-30T09:39:01;19.05;;;7.95;;
49828;SDS011;35723;51.194;5.112;2024-01-30T09:41:27;20.23;;;7.60;;
49828;SDS011;35723;51.194;5.112;2024-01-30T09:43:54;22.00;;;8.10;;
49828;SDS011;35723;51.194;5.112;2024-01-30T09:46:22;24.88;;;8.20;;
49828;SDS011;35723;51.194;5.112;2024-01-30T09:48:52;22.25;;;8.70;;
49828;SDS011;35723;51.194;5.112;2024-01-30T09:51:20;21.30;;;8.35;;
49828;SDS011;35723;51.194;5.112;2024-01-30T09:53:47;19.13;;;7.93;;
49828;SDS011;35723;51.194;5.112;2024-01-30T09:56:14;24.48;;;8.25;;
49828;SDS011;35723;51.194;5.112;2024-01-30T09:58:39;24.25;;;8.40;;
49828;SDS011;35723;51.194;5.112;2024-01-30T10:01:05;21.75;;;7.93;;
49828;SDS011;35723;51.194;5.112;2024-01-30T10:03:31;20.75;;;8.07;;
49828;SDS011;35723;51.194;5.112;2024-01-30T10:05:57;21.55;;;8.50;;
49828;SDS011;35723;51.194;5.112;2024-01-30T10:08:23;22.02;;;7.90;;
49828;SDS011;35723;51.194;5.112;2024-01-30T10:10:49;23.05;;;8.20;;
49828;SDS011;35723;51.194;5.112;2024-01-30T10:13:15;22.65;;;8.00;;
49828;SDS011;35723;51.194;5.112;2024-01-30T10:15:41;19.27;;;7.88;;
49828;SDS011;35723;51.194;5.112;2024-01-30T10:18:10;20.15;;;8.50;;
49828;SDS011;35723;51.194;5.112;2024-01-30T10:20:36;20.20;;;8.00;;
49828;SDS011;35723;51.194;5.112;2024-01-30T10:23:02;19.17;;;8.40;;
49828;SDS011;35723;51.194;5.112;2024-01-30T10:25:32;19.35;;;8.25;;
49828;SDS011;35723;51.194;5.112;2024-01-30T10:27:58;23.40;;;9.18;;
49828;SDS011;35723;51.194;5.112;2024-01-30T10:30:24;21.20;;;8.80;;
49828;SDS011;35723;51.194;5.112;2024-01-30T10:32:50;25.35;;;9.57;;
49828;SDS011;35723;51.194;5.112;2024-01-30T10:35:16;22.85;;;8.73;;
49828;SDS011;35723;51.194;5.112;2024-01-30T10:37:48;20.30;;;8.27;;
49828;SDS011;35723;51.194;5.112;2024-01-30T10:40:14;22.83;;;8.98;;
49828;SDS011;35723;51.194;5.112;2024-01-30T10:42:44;22.80;;;8.50;;
49828;SDS011;35723;51.194;5.112;2024-01-30T10:45:11;25.20;;;8.63;;
49828;SDS011;35723;51.194;5.112;2024-01-30T10:47:39;20.10;;;8.50;;
49828;SDS011;35723;51.194;5.112;2024-01-30T10:50:08;21.10;;;8.68;;
49828;SDS011;35723;51.194;5.112;2024-01-30T10:52:35;23.10;;;8.98;;
49828;SDS011;35723;51.194;5.112;2024-01-30T10:55:01;20.48;;;8.82;;
49828;SDS011;35723;51.194;5.112;2024-01-30T10:57:31;20.98;;;9.10;;
49828;SDS011;35723;51.194;5.112;2024-01-30T11:00:00;19.95;;;8.88;;
49828;SDS011;35723;51.194;5.112;2024-01-30T11:02:35;23.73;;;9.00;;
49828;SDS011;35723;51.194;5.112;2024-01-30T11:05:05;24.90;;;9.13;;
49828;SDS011;35723;51.194;5.112;2024-01-30T11:07:31;26.27;;;9.32;;
49828;SDS011;35723;51.194;5.112;2024-01-30T11:12:22;22.58;;;9.10;;
49828;SDS011;35723;51.194;5.112;2024-01-30T11:21:04;20.95;;;8.57;;
49828;SDS011;35723;51.194;5.112;2024-01-30T11:23:30;25.88;;;8.70;;
49828;SDS011;35723;51.194;5.112;2024-01-30T11:25:58;23.38;;;7.50;;
49828;SDS011;35723;51.194;5.112;2024-01-30T11:28:23;20.52;;;7.47;;
49828;SDS011;35723;51.194;5.112;2024-01-30T11:30:49;19.15;;;7.10;;
49828;SDS011;35723;51.194;5.112;2024-01-30T11:33:28;21.45;;;7.38;;
49828;SDS011;35723;51.194;5.112;2024-01-30T11:35:58;18.88;;;7.53;;
49828;SDS011;35723;51.194;5.112;2024-01-30T11:38:25;18.65;;;7.22;;
49828;SDS011;35723;51.194;5.112;2024-01-30T11:40:53;20.17;;;7.35;;
49828;SDS011;35723;51.194;5.112;2024-01-30T11:43:21;21.33;;;6.82;;
49828;SDS011;35723;51.194;5.112;2024-01-30T11:45:47;20.23;;;6.20;;
49828;SDS011;35723;51.194;5.112;2024-01-30T11:48:12;22.50;;;6.78;;
49828;SDS011;35723;51.194;5.112;2024-01-30T11:50:39;22.75;;;6.22;;
49828;SDS011;35723;51.194;5.112;2024-01-30T11:53:09;16.48;;;5.20;;
49828;SDS011;35723;51.194;5.112;2024-01-30T11:55:35;17.90;;;5.68;;
49828;SDS011;35723;51.194;5.112;2024-01-30T11:58:02;18.65;;;4.90;;
49828;SDS011;35723;51.194;5.112;2024-01-30T12:00:29;17.77;;;5.03;;
49828;SDS011;35723;51.194;5.112;2024-01-30T12:02:56;13.80;;;4.45;;
49828;SDS011;35723;51.194;5.112;2024-01-30T12:05:25;16.95;;;4.38;;
49828;SDS011;35723;51.194;5.112;2024-01-30T12:07:51;12.60;;;4.00;;
49828;SDS011;35723;51.194;5.112;2024-01-30T12:10:17;13.60;;;3.72;;
49828;SDS011;35723;51.194;5.112;2024-01-30T12:12:45;17.92;;;4.15;;
49828;SDS011;35723;51.194;5.112;2024-01-30T12:15:13;17.08;;;3.88;;
49828;SDS011;35723;51.194;5.112;2024-01-30T12:17:39;15.50;;;3.47;;
49828;SDS011;35723;51.194;5.112;2024-01-30T12:20:12;15.18;;;3.10;;
49828;SDS011;35723;51.194;5.112;2024-01-30T12:27:37;14.38;;;3.33;;
49828;SDS011;35723;51.194;5.112;2024-01-30T12:30:07;9.98;;;2.78;;
49828;SDS011;35723;51.194;5.112;2024-01-30T12:32:52;8.90;;;2.10;;
49828;SDS011;35723;51.194;5.112;2024-01-30T12:35:18;11.77;;;2.30;;
49828;SDS011;35723;51.194;5.112;2024-01-30T12:37:44;9.43;;;1.98;;
49828;SDS011;35723;51.194;5.112;2024-01-30T12:40:11;7.03;;;1.95;;
49828;SDS011;35723;51.194;5.112;2024-01-30T12:42:39;7.28;;;2.00;;
49828;SDS011;35723;51.194;5.112;2024-01-30T12:45:13;9.13;;;1.90;;
49828;SDS011;35723;51.194;5.112;2024-01-30T12:47:40;6.97;;;1.80;;
49828;SDS011;35723;51.194;5.112;2024-01-30T12:50:06;7.13;;;1.38;;
49828;SDS011;35723;51.194;5.112;2024-01-30T12:52:32;10.27;;;2.00;;
49828;SDS011;35723;51.194;5.112;2024-01-30T12:54:58;5.75;;;1.98;;
49828;SDS011;35723;51.194;5.112;2024-01-30T12:57:24;7.20;;;1.65;;
49828;SDS011;35723;51.194;5.112;2024-01-30T12:59:49;6.65;;;1.38;;
49828;SDS011;35723;51.194;5.112;2024-01-30T13:02:15;8.20;;;1.38;;
49828;SDS011;35723;51.194;5.112;2024-01-30T13:04:41;4.38;;;1.40;;
49828;SDS011;35723;51.194;5.112;2024-01-30T13:07:07;4.25;;;1.55;;
49828;SDS011;35723;51.194;5.112;2024-01-30T13:09:33;10.57;;;1.63;;
49828;SDS011;35723;51.194;5.112;2024-01-30T13:11:59;8.77;;;1.50;;
49828;SDS011;35723;51.194;5.112;2024-01-30T13:14:27;7.60;;;1.45;;
49828;SDS011;35723;51.194;5.112;2024-01-30T13:16:53;8.80;;;1.58;;
49828;SDS011;35723;51.194;5.112;2024-01-30T13:19:18;3.47;;;1.30;;
49828;SDS011;35723;51.194;5.112;2024-01-30T13:21:44;8.82;;;1.40;;
49828;SDS011;35723;51.194;5.112;2024-01-30T13:24:10;6.63;;;1.10;;
49828;SDS011;35723;51.194;5.112;2024-01-30T13:26:36;8.00;;;1.23;;
49828;SDS011;35723;51.194;5.112;2024-01-30T13:29:02;5.88;;;1.10;;
49828;SDS011;35723;51.194;5.112;2024-01-30T13:31:28;4.97;;;1.02;;
49828;SDS011;35723;51.194;5.112;2024-01-30T13:33:55;8.40;;;1.50;;
49828;SDS011;35723;51.194;5.112;2024-01-30T13:36:21;6.88;;;1.50;;
49828;SDS011;35723;51.194;5.112;2024-01-30T13:38:47;7.57;;;1.30;;
49828;SDS011;35723;51.194;5.112;2024-01-30T13:41:13;7.03;;;1.38;;
49828;SDS011;35723;51.194;5.112;2024-01-30T13:43:38;8.85;;;1.55;;
49828;SDS011;35723;51.194;5.112;2024-01-30T13:46:04;8.35;;;1.80;;
49828;SDS011;35723;51.194;5.112;2024-01-30T13:48:31;6.45;;;1.50;;
49828;SDS011;35723;51.194;5.112;2024-01-30T13:50:56;10.45;;;1.73;;
49828;SDS011;35723;51.194;5.112;2024-01-30T13:53:22;9.35;;;1.50;;
49828;SDS011;35723;51.194;5.112;2024-01-30T13:55:48;8.85;;;1.55;;
49828;SDS011;35723;51.194;5.112;2024-01-30T13:58:13;9.20;;;1.70;;
49828;SDS011;35723;51.194;5.112;2024-01-30T14:00:39;5.43;;;1.58;;
49828;SDS011;35723;51.194;5.112;2024-01-30T14:03:05;5.82;;;1.60;;
49828;SDS011;35723;51.194;5.112;2024-01-30T14:05:30;7.38;;;1.77;;
49828;SDS011;35723;51.194;5.112;2024-01-30T14:07:56;4.75;;;1.40;;
49828;SDS011;35723;51.194;5.112;2024-01-30T14:10:23;6.13;;;1.60;;
49828;SDS011;35723;51.194;5.112;2024-01-30T14:12:49;7.00;;;1.33;;
49828;SDS011;35723;51.194;5.112;2024-01-30T14:15:14;5.70;;;1.40;;
49828;SDS011;35723;51.194;5.112;2024-01-30T14:17:43;3.47;;;1.23;;
49828;SDS011;35723;51.194;5.112;2024-01-30T14:20:10;7.25;;;1.77;;
49828;SDS011;35723;51.194;5.112;2024-01-30T14:22:36;7.82;;;1.98;;
49828;SDS011;35723;51.194;5.112;2024-01-30T14:25:02;9.73;;;1.75;;
49828;SDS011;35723;51.194;5.112;2024-01-30T14:27:31;6.07;;;2.03;;
49828;SDS011;35723;51.194;5.112;2024-01-30T14:29:57;4.13;;;1.52;;
49828;SDS011;35723;51.194;5.112;2024-01-30T14:32:23;5.28;;;1.58;;
49828;SDS011;35723;51.194;5.112;2024-01-30T14:34:50;12.57;;;2.70;;
49828;SDS011;35723;51.194;5.112;2024-01-30T14:37:17;5.95;;;1.80;;
49828;SDS011;35723;51.194;5.112;2024-01-30T14:39:43;5.88;;;1.58;;
49828;SDS011;35723;51.194;5.112;2024-01-30T14:42:08;7.57;;;1.85;;
49828;SDS011;35723;51.194;5.112;2024-01-30T14:44:35;10.65;;;2.08;;